Time;durP1;ratioP1;P1;durP2;ratioP2;P2;SDS_P1;SDS_P2;PMS_P1;PMS_P2;Temp;Humidity;BMP_temperature;BMP_pressure;BME280_temperature;BME280_humidity;BME280_pressure;Samples;Min_cycle;Max_cycle;Signal;HPM_P1;HPM_P2
2021/12/05 00:18:27;;;;;;;6.10;1.50;;;;;;;-144.99;100.00;57660.31;346647;28;1598;-64
2021/12/05 00:20:56;;;;;;;4.88;1.70;;;;;;;-144.99;100.00;57660.31;347914;28;1370;-63
2021/12/05 00:21:44;;;;;;;7.70;1.90;;;;;;;-144.99;100.00;57660.31;346318;28;1015;-63
2021/12/05 00:22:28;;;;;;;5.28;1.67;;;;;;;-144.99;100.00;57660.31;347926;28;1022;-61
2021/12/05 00:22:42;;;;;;;7.90;2.30;;;;;;;-144.99;100.00;57660.31;346995;28;2130;-63
2021/12/05 00:22:56;;;;;;;5.07;1.63;;;;;;;-144.99;100.00;57660.31;347094;28;1918;-64
2021/12/05 00:23:13;;;;;;;4.95;1.60;;;;;;;-144.99;100.00;57660.31;347087;28;2248;-63
2021/12/05 00:23:40;;;;;;;7.15;1.70;;;;;;;-144.99;100.00;57660.31;347562;28;2264;-63
2021/12/05 00:24:01;;;;;;;6.13;1.70;;;;;;;-144.99;100.00;57660.31;347732;28;1031;-63
2021/12/05 00:24:19;;;;;;;5.45;1.67;;;;;;;-144.99;100.00;57660.31;346333;28;963;-63
2021/12/05 00:24:35;;;;;;;5.20;1.65;;;;;;;-144.99;100.00;57660.31;346446;28;1284;-63
2021/12/05 00:24:51;;;;;;;6.40;1.60;;;;;;;-144.99;100.00;57660.31;346445;28;1222;-63
2021/12/05 00:25:07;;;;;;;7.43;1.67;;;;;;;-144.99;100.00;57660.31;347278;28;1895;-63
2021/12/05 00:25:27;;;;;;;6.60;1.82;;;;;;;-144.99;100.00;57660.31;347785;28;1026;-61
2021/12/05 00:25:43;;;;;;;8.80;2.20;;;;;;;-144.99;100.00;57660.31;347607;28;1275;-63
2021/12/05 00:25:58;;;;;;;7.93;1.90;;;;;;;-144.99;100.00;57660.31;347461;28;2006;-64
2021/12/05 00:26:15;;;;;;;7.85;1.90;;;;;;;-144.99;100.00;57660.31;346800;28;1085;-63
2021/12/05 00:26:30;;;;;;;7.15;1.80;;;;;;;-144.99;100.00;57660.31;346548;28;1251;-63
2021/12/05 00:26:51;;;;;;;6.85;1.80;;;;;;;-144.99;100.00;57660.31;346430;28;1003;-62
2021/12/05 00:27:11;;;;;;;8.52;1.88;;;;;;;-144.99;100.00;57660.31;346401;28;1594;-63
2021/12/05 00:27:30;;;;;;;6.35;1.70;;;;;;;-144.99;100.00;57660.31;346287;28;1062;-64
2021/12/05 00:28:01;;;;;;;6.88;1.60;;;;;;;-144.99;100.00;57660.31;346355;28;2058;-64
2021/12/05 00:29:11;;;;;;;8.90;1.85;;;;;;;-144.99;100.00;57660.31;346594;28;1086;-64
2021/12/05 00:31:02;;;;;;;6.43;1.58;;;;;;;-144.99;100.00;57660.31;347968;28;1316;-63
2021/12/05 00:31:53;;;;;;;5.95;1.60;;;;;;;-144.99;100.00;57660.31;347815;28;1152;-62
2021/12/05 00:32:20;;;;;;;6.43;1.65;;;;;;;-144.99;100.00;57660.31;347730;28;1528;-62
2021/12/05 00:33:08;;;;;;;5.22;1.67;;;;;;;-144.99;100.00;57660.31;347817;28;1273;-63
2021/12/05 00:33:39;;;;;;;4.78;1.50;;;;;;;-144.99;100.00;57660.31;347279;28;1310;-63
2021/12/05 00:34:42;;;;;;;6.28;1.65;;;;;;;-144.99;100.00;57660.31;346378;28;2127;-63
2021/12/05 00:43:57;;;;;;;6.43;1.65;;;;;;;-144.99;100.00;57660.31;347595;28;1377;-63
2021/12/05 00:47:57;;;;;;;5.80;1.30;;;;;;;-144.99;100.00;57660.31;346668;28;1609;-62
2021/12/05 00:55:02;;;;;;;7.55;1.98;;;;;;;-144.99;100.00;57660.31;347826;28;1045;-63
2021/12/05 00:55:28;;;;;;;4.47;1.65;;;;;;;-144.99;100.00;57660.31;347384;28;1670;-63
2021/12/05 00:55:59;;;;;;;5.65;1.70;;;;;;;-144.99;100.00;57660.31;346659;28;2376;-64
2021/12/05 00:58:05;;;;;;;5.18;1.50;;;;;;;-144.99;100.00;57660.31;346582;28;1076;-64
2021/12/05 01:02:18;;;;;;;5.53;1.60;;;;;;;-144.99;100.00;57660.31;345252;28;1168;-63
2021/12/05 01:07:10;;;;;;;6.90;2.05;;;;;;;-144.99;100.00;57660.31;346628;28;1059;-63
2021/12/05 01:09:16;;;;;;;6.57;1.83;;;;;;;-144.99;100.00;57660.31;344767;28;1242;-64
2021/12/05 01:10:38;;;;;;;6.57;2.00;;;;;;;-144.99;100.00;57660.31;345194;28;2036;-63
2021/12/05 01:13:27;;;;;;;7.00;1.90;;;;;;;-144.99;100.00;57660.31;347318;28;1354;-63
2021/12/05 01:14:00;;;;;;;7.22;1.70;;;;;;;-144.99;100.00;57660.31;347599;28;1255;-63
2021/12/05 01:14:38;;;;;;;7.70;1.70;;;;;;;-144.99;100.00;57660.31;347807;28;1134;-64
2021/12/05 01:15:18;;;;;;;6.57;1.80;;;;;;;-144.99;100.00;57660.31;346656;28;1259;-62
2021/12/05 01:15:31;;;;;;;6.72;1.60;;;;;;;-144.99;100.00;57660.31;346508;28;1232;-63
2021/12/05 01:15:44;;;;;;;7.10;1.70;;;;;;;-144.99;100.00;57660.31;346028;28;1228;-63
2021/12/05 01:16:00;;;;;;;6.97;1.90;;;;;;;-144.99;100.00;57660.31;346465;28;2322;-63
2021/12/05 01:16:18;;;;;;;7.13;1.90;;;;;;;-144.99;100.00;57660.31;347732;28;1022;-63
2021/12/05 01:16:32;;;;;;;7.03;2.00;;;;;;;-144.99;100.00;57660.31;347383;28;2126;-63
2021/12/05 01:16:46;;;;;;;6.22;1.63;;;;;;;-144.99;100.00;57660.31;346308;28;1295;-63
2021/12/05 01:17:00;;;;;;;5.68;1.50;;;;;;;-144.99;100.00;57660.31;346601;28;1357;-63
2021/12/05 01:17:14;;;;;;;6.28;1.70;;;;;;;-144.99;100.00;57660.31;347863;28;1075;-63
2021/12/05 01:17:33;;;;;;;7.93;1.75;;;;;;;-144.99;100.00;57660.31;347823;28;1048;-63
2021/12/05 01:18:16;;;;;;;7.10;1.65;;;;;;;-144.99;100.00;57660.31;346885;28;2088;-63
2021/12/05 01:18:29;;;;;;;6.72;1.73;;;;;;;-144.99;100.00;57660.31;347768;28;1074;-63
2021/12/05 01:18:41;;;;;;;6.63;1.80;;;;;;;-144.99;100.00;57660.31;347810;28;1213;-63
2021/12/05 01:18:54;;;;;;;6.03;1.83;;;;;;;-144.99;100.00;57660.31;347878;28;1189;-64
2021/12/05 01:19:08;;;;;;;5.78;1.70;;;;;;;-144.99;100.00;57660.31;347746;28;1347;-63
2021/12/05 01:19:22;;;;;;;5.45;1.60;;;;;;;-144.99;100.00;57660.31;347856;28;1334;-64
2021/12/05 01:19:34;;;;;;;6.93;1.83;;;;;;;-144.99;100.00;57660.31;347032;28;2231;-63
2021/12/05 01:19:47;;;;;;;8.07;1.90;;;;;;;-144.99;100.00;57660.31;347751;28;1270;-63
2021/12/05 01:20:02;;;;;;;8.20;1.52;;;;;;;-144.99;100.00;57660.31;346158;28;4370;-63
2021/12/05 01:20:18;;;;;;;6.65;1.55;;;;;;;-144.99;100.00;57660.31;345411;28;4261;-64
2021/12/05 01:20:34;;;;;;;6.93;1.77;;;;;;;-144.99;100.00;57660.31;347093;28;3068;-64
2021/12/05 01:20:52;;;;;;;4.93;1.52;;;;;;;-144.99;100.00;57660.31;347876;28;1051;-63
2021/12/05 01:21:10;;;;;;;3.00;1.27;;;;;;;-144.99;100.00;57660.31;347666;28;1701;-62
2021/12/05 01:21:25;;;;;;;4.32;1.65;;;;;;;-144.99;100.00;57660.31;347828;28;1077;-63
2021/12/05 01:21:39;;;;;;;5.38;1.90;;;;;;;-144.99;100.00;57660.31;346995;28;2873;-62
2021/12/05 01:21:57;;;;;;;6.05;1.80;;;;;;;-144.99;100.00;57660.31;347633;28;1162;-63
2021/12/05 01:22:12;;;;;;;6.68;1.70;;;;;;;-144.99;100.00;57660.31;346175;28;1145;-64
2021/12/05 01:22:26;;;;;;;8.35;1.75;;;;;;;-144.99;100.00;57660.31;345962;28;1098;-63
2021/12/05 01:22:44;;;;;;;8.43;1.80;;;;;;;-144.99;100.00;57660.31;346073;28;2093;-64
2021/12/05 01:23:36;;;;;;;5.60;1.52;;;;;;;-144.99;100.00;57660.31;345858;28;1507;-64
2021/12/05 01:24:09;;;;;;;7.60;1.70;;;;;;;-144.99;100.00;57660.31;346203;28;2104;-63
2021/12/05 01:26:24;;;;;;;4.95;1.48;;;;;;;-144.99;100.00;57660.31;347542;28;1042;-63
2021/12/05 01:27:05;;;;;;;4.70;1.50;;;;;;;-144.99;100.00;57660.31;342842;28;2335;-64
2021/12/05 01:27:11;;;;;;;7.90;1.98;;;;;;;-144.99;100.00;57660.31;344888;28;2135;-63
2021/12/05 01:27:39;;;;;;;5.20;1.38;;;;;;;-144.99;100.00;57660.31;346237;28;1582;-63
2021/12/05 01:30:11;;;;;;;3.97;1.40;;;;;;;-144.99;100.00;57660.31;346538;28;2126;-63
2021/12/05 01:31:17;;;;;;;5.78;1.80;;;;;;;-144.99;100.00;57660.31;346312;28;1225;-64
2021/12/05 01:32:08;;;;;;;6.35;1.73;;;;;;;-144.99;100.00;57660.31;346430;28;1070;-63
2021/12/05 01:32:39;;;;;;;6.75;1.65;;;;;;;-144.99;100.00;57660.31;346050;28;1728;-64
2021/12/05 01:33:18;;;;;;;8.00;1.88;;;;;;;-144.99;100.00;57660.31;345985;28;2639;-64
2021/12/05 01:34:40;;;;;;;7.60;1.50;;;;;;;-144.99;100.00;57660.31;347641;28;1325;-63
2021/12/05 01:35:06;;;;;;;7.63;1.73;;;;;;;-144.99;100.00;57660.31;346806;28;2173;-63
2021/12/05 01:36:05;;;;;;;8.13;1.58;;;;;;;-144.99;100.00;57660.31;346452;28;1304;-63
2021/12/05 01:36:29;;;;;;;5.60;1.67;;;;;;;-144.99;100.00;57660.31;347560;28;1224;-62
2021/12/05 01:39:08;;;;;;;7.20;1.58;;;;;;;-144.99;100.00;57660.31;347043;28;1851;-63
2021/12/05 01:40:26;;;;;;;7.75;1.90;;;;;;;-144.99;100.00;57660.31;346625;28;1307;-63
2021/12/05 01:40:58;;;;;;;7.45;1.92;;;;;;;-144.99;100.00;57660.31;346355;28;1007;-63
2021/12/05 01:47:59;;;;;;;7.93;1.80;;;;;;;-144.99;100.00;57660.31;346442;28;1090;-64
2021/12/05 01:51:41;;;;;;;6.18;1.70;;;;;;;-144.99;100.00;57660.31;346452;28;1197;-64
2021/12/05 01:56:57;;;;;;;6.53;1.83;;;;;;;-144.99;100.00;57660.31;346953;28;1113;-62
2021/12/05 01:59:11;;;;;;;5.70;1.45;;;;;;;-144.99;100.00;57660.31;347560;28;1050;-63
2021/12/05 01:59:44;;;;;;;7.45;1.70;;;;;;;-144.99;100.00;57660.31;347547;28;2119;-63
2021/12/05 02:00:57;;;;;;;6.88;1.90;;;;;;;-144.99;100.00;57660.31;346142;28;1922;-63
2021/12/05 02:02:49;;;;;;;5.82;1.52;;;;;;;-144.99;100.00;57660.31;347734;28;1553;-63
2021/12/05 02:11:10;;;;;;;4.18;1.30;;;;;;;-144.99;100.00;57660.31;347464;28;1254;-63
2021/12/05 02:16:32;;;;;;;;;;;;;;;;;;;;;
2021/12/05 02:31:33;;;;;;;4.65;1.42;;;;;;;-144.99;100.00;57660.31;347833;28;1150;-64
2021/12/05 02:31:55;;;;;;;4.57;1.40;;;;;;;-144.99;100.00;57660.31;346327;28;1627;-63
2021/12/05 02:38:51;;;;;;;7.88;1.60;;;;;;;-144.99;100.00;57660.31;347411;28;2282;-64
2021/12/05 02:39:43;;;;;;;3.20;1.15;;;;;;;-144.99;100.00;57660.31;347557;28;1194;-63
2021/12/05 02:41:22;;;;;;;5.10;1.60;;;;;;;-144.99;100.00;57660.31;346140;28;1044;-63
2021/12/05 02:41:46;;;;;;;3.85;1.50;;;;;;;-144.99;100.00;57660.31;345724;28;1906;-63
2021/12/05 02:42:08;;;;;;;5.65;1.42;;;;;;;-144.99;100.00;57660.31;346189;28;1631;-64
2021/12/05 02:42:45;;;;;;;6.82;1.58;;;;;;;-144.99;100.00;57660.31;346154;28;1206;-64
2021/12/05 02:43:19;;;;;;;4.28;1.48;;;;;;;-144.99;100.00;57660.31;347782;28;1292;-63
2021/12/05 02:43:40;;;;;;;3.75;1.40;;;;;;;-144.99;100.00;57660.31;347762;28;1397;-63
2021/12/05 02:44:06;;;;;;;4.32;1.40;;;;;;;-144.99;100.00;57660.31;347330;28;1234;-63
2021/12/05 02:44:25;;;;;;;7.10;2.00;;;;;;;-144.99;100.00;57660.31;346005;28;1254;-63
2021/12/05 02:44:38;;;;;;;6.32;1.77;;;;;;;-144.99;100.00;57660.31;345985;28;1765;-63
2021/12/05 02:44:51;;;;;;;5.38;1.20;;;;;;;-144.99;100.00;57660.31;346114;28;1189;-63
2021/12/05 02:45:06;;;;;;;4.78;1.17;;;;;;;-144.99;100.00;57660.31;346956;28;1582;-63
2021/12/05 02:45:18;;;;;;;5.22;1.40;;;;;;;-144.99;100.00;57660.31;347528;28;1065;-64
2021/12/05 02:45:33;;;;;;;5.65;1.55;;;;;;;-144.99;100.00;57660.31;347495;28;1054;-63
2021/12/05 02:45:47;;;;;;;4.07;1.30;;;;;;;-144.99;100.00;57660.31;347034;28;1075;-63
2021/12/05 02:46:02;;;;;;;3.78;1.20;;;;;;;-144.99;100.00;57660.31;347512;28;1578;-63
2021/12/05 02:46:16;;;;;;;4.90;1.30;;;;;;;-144.99;100.00;57660.31;347775;28;1062;-63
2021/12/05 02:46:28;;;;;;;5.32;1.15;;;;;;;-144.99;100.00;57660.31;346715;28;1781;-63
2021/12/05 02:46:44;;;;;;;5.68;1.02;;;;;;;-144.99;100.00;57660.31;346565;28;1116;-64
2021/12/05 02:47:08;;;;;;;4.90;1.10;;;;;;;-144.99;100.00;57660.31;346204;28;1633;-64
2021/12/05 02:47:24;;;;;;;4.63;1.27;;;;;;;-144.99;100.00;57660.31;347642;28;1840;-62
2021/12/05 02:47:38;;;;;;;3.47;1.02;;;;;;;-144.99;100.00;57660.31;346678;28;2240;-63
2021/12/05 02:47:53;;;;;;;2.90;1.10;;;;;;;-144.99;100.00;57660.31;347020;28;1766;-63
2021/12/05 02:48:07;;;;;;;4.05;1.20;;;;;;;-144.99;100.00;57660.31;347545;28;1313;-63
2021/12/05 02:48:21;;;;;;;4.00;1.20;;;;;;;-144.99;100.00;57660.31;347690;28;1080;-63
2021/12/05 02:48:36;;;;;;;4.00;1.35;;;;;;;-144.99;100.00;57660.31;347663;28;1319;-64
2021/12/05 02:48:49;;;;;;;4.35;1.42;;;;;;;-144.99;100.00;57660.31;347772;28;1294;-63
2021/12/05 02:49:04;;;;;;;4.70;1.38;;;;;;;-144.99;100.00;57660.31;346933;28;1533;-63
2021/12/05 02:49:17;;;;;;;5.05;1.40;;;;;;;-144.99;100.00;57660.31;346294;28;1046;-63
2021/12/05 02:49:31;;;;;;;6.30;1.20;;;;;;;-144.99;100.00;57660.31;345936;28;2533;-63
2021/12/05 02:49:47;;;;;;;6.85;1.13;;;;;;;-144.99;100.00;57660.31;347375;28;2279;-63
2021/12/05 02:50:04;;;;;;;5.65;1.00;;;;;;;-144.99;100.00;57660.31;347239;28;1697;-63
2021/12/05 02:50:17;;;;;;;5.90;1.10;;;;;;;-144.99;100.00;57660.31;346396;28;1184;-63
2021/12/05 02:50:32;;;;;;;4.47;1.10;;;;;;;-144.99;100.00;57660.31;346263;28;1183;-62
2021/12/05 02:50:44;;;;;;;3.17;1.15;;;;;;;-144.99;100.00;57660.31;346469;28;1754;-62
2021/12/05 02:50:58;;;;;;;3.58;1.23;;;;;;;-144.99;100.00;57660.31;347485;28;1618;-63
2021/12/05 02:51:19;;;;;;;5.22;1.30;;;;;;;-144.99;100.00;57660.31;346235;28;2191;-63
2021/12/05 02:51:33;;;;;;;4.55;1.27;;;;;;;-144.99;100.00;57660.31;347139;28;1480;-63
2021/12/05 02:51:56;;;;;;;4.00;1.17;;;;;;;-144.99;100.00;57660.31;347130;28;1916;-63
2021/12/05 02:52:13;;;;;;;2.42;1.15;;;;;;;-144.99;100.00;57660.31;346202;28;1254;-63
2021/12/05 02:52:32;;;;;;;4.00;1.45;;;;;;;-144.99;100.00;57660.31;346888;28;2158;-63
2021/12/05 02:52:44;;;;;;;4.68;1.30;;;;;;;-144.99;100.00;57660.31;347253;28;2037;-63
2021/12/05 02:53:03;;;;;;;5.05;1.30;;;;;;;-144.99;100.00;57660.31;347281;28;1515;-63
2021/12/05 02:53:19;;;;;;;4.88;1.25;;;;;;;-144.99;100.00;57660.31;347266;28;1774;-63
2021/12/05 02:53:42;;;;;;;4.53;1.13;;;;;;;-144.99;100.00;57660.31;346991;28;2052;-63
2021/12/05 02:54:16;;;;;;;4.38;1.10;;;;;;;-144.99;100.00;57660.31;346742;28;1880;-63
2021/12/05 02:54:34;;;;;;;5.47;1.10;;;;;;;-144.99;100.00;57660.31;347563;28;1088;-63
2021/12/05 02:54:52;;;;;;;3.97;1.30;;;;;;;-144.99;100.00;57660.31;346389;28;1104;-63
2021/12/05 02:55:24;;;;;;;3.53;1.27;;;;;;;-144.99;100.00;57660.31;347210;28;1363;-63
2021/12/05 02:55:43;;;;;;;3.42;1.38;;;;;;;-144.99;100.00;57660.31;347783;28;1323;-63
2021/12/05 02:55:55;;;;;;;4.85;1.40;;;;;;;-144.99;100.00;57660.31;347458;28;1811;-63
2021/12/05 02:56:09;;;;;;;5.50;1.30;;;;;;;-144.99;100.00;57660.31;346367;28;1065;-63
2021/12/05 02:56:23;;;;;;;4.78;1.27;;;;;;;-144.99;100.00;57660.31;346020;28;926;-62
2021/12/05 02:56:42;;;;;;;3.95;1.05;;;;;;;-144.99;100.00;57660.31;346409;28;1322;-63
2021/12/05 02:56:56;;;;;;;3.55;1.10;;;;;;;-144.99;100.00;57660.31;347159;28;1846;-63
2021/12/05 02:57:09;;;;;;;4.18;1.20;;;;;;;-144.99;100.00;57660.31;346463;28;1073;-62
2021/12/05 02:58:00;;;;;;;5.82;1.20;;;;;;;-144.99;100.00;57660.31;346192;28;1050;-62
2021/12/05 02:58:02;;;;;;;5.05;1.30;;;;;;;-144.99;100.00;57660.31;343789;28;1390;-62
2021/12/05 02:58:50;;;;;;;4.32;1.23;;;;;;;-144.99;100.00;57660.31;347693;28;1061;-62
2021/12/05 02:59:42;;;;;;;6.50;1.30;;;;;;;-144.99;100.00;57660.31;346691;28;1343;-62
2021/12/05 02:59:52;;;;;;;3.30;1.27;;;;;;;-144.99;100.00;57660.31;344348;28;1332;-62
2021/12/05 03:00:09;;;;;;;5.05;1.35;;;;;;;-144.99;100.00;57660.31;346976;28;1861;-62
2021/12/05 03:01:28;;;;;;;5.22;1.30;;;;;;;-144.99;100.00;57660.31;347064;28;1402;-61
2021/12/05 03:01:45;;;;;;;5.68;1.33;;;;;;;-144.99;100.00;57660.31;347520;28;1088;-62
2021/12/05 03:02:07;;;;;;;3.20;1.13;;;;;;;-144.99;100.00;57660.31;346921;28;1583;-62
2021/12/05 03:02:26;;;;;;;3.83;1.10;;;;;;;-144.99;100.00;57660.31;345896;28;1151;-62
2021/12/05 03:02:42;;;;;;;4.55;1.02;;;;;;;-144.99;100.00;57660.31;346018;28;1280;-62
2021/12/05 03:02:54;;;;;;;3.97;1.02;;;;;;;-144.99;100.00;57660.31;346174;28;2204;-63
2021/12/05 03:03:19;;;;;;;4.65;1.10;;;;;;;-144.99;100.00;57660.31;346394;28;1042;-62
2021/12/05 03:03:32;;;;;;;4.22;1.20;;;;;;;-144.99;100.00;57660.31;346164;28;1322;-63
2021/12/05 03:03:46;;;;;;;5.05;1.40;;;;;;;-144.99;100.00;57660.31;346300;28;1049;-62
2021/12/05 03:03:58;;;;;;;5.68;1.50;;;;;;;-144.99;100.00;57660.31;346416;28;1196;-62
2021/12/05 03:04:10;;;;;;;6.38;1.40;;;;;;;-144.99;100.00;57660.31;346757;28;1861;-62
2021/12/05 03:04:24;;;;;;;5.45;1.40;;;;;;;-144.99;100.00;57660.31;345865;28;1106;-62
2021/12/05 03:04:40;;;;;;;3.60;1.30;;;;;;;-144.99;100.00;57660.31;345813;28;1057;-62
2021/12/05 03:04:55;;;;;;;3.80;1.20;;;;;;;-144.99;100.00;57660.31;345921;28;1233;-62
2021/12/05 03:05:11;;;;;;;5.00;1.10;;;;;;;-144.99;100.00;57660.31;345881;28;1087;-62
2021/12/05 03:05:24;;;;;;;4.00;1.10;;;;;;;-144.99;100.00;57660.31;345867;28;1029;-62
2021/12/05 03:05:42;;;;;;;2.88;1.10;;;;;;;-144.99;100.00;57660.31;346030;28;1279;-62
2021/12/05 03:06:05;;;;;;;5.57;1.15;;;;;;;-144.99;100.00;57660.31;346291;28;1066;-61
2021/12/05 03:06:22;;;;;;;6.35;1.30;;;;;;;-144.99;100.00;57660.31;345914;28;1070;-63
2021/12/05 03:06:35;;;;;;;4.63;1.40;;;;;;;-144.99;100.00;57660.31;345871;28;2205;-63
2021/12/05 03:06:52;;;;;;;5.53;1.38;;;;;;;-144.99;100.00;57660.31;346785;28;1758;-62
2021/12/05 03:07:07;;;;;;;5.47;1.27;;;;;;;-144.99;100.00;57660.31;346437;28;1918;-61
2021/12/05 03:07:26;;;;;;;3.65;1.20;;;;;;;-144.99;100.00;57660.31;346370;28;1172;-62
2021/12/05 03:07:41;;;;;;;4.35;1.30;;;;;;;-144.99;100.00;57660.31;346345;28;1910;-62
2021/12/05 03:07:58;;;;;;;5.10;1.50;;;;;;;-144.99;100.00;57660.31;347684;28;1813;-62
2021/12/05 03:08:10;;;;;;;4.75;1.60;;;;;;;-144.99;100.00;57660.31;346316;28;2272;-62
2021/12/05 03:08:22;;;;;;;4.03;1.50;;;;;;;-144.99;100.00;57660.31;347061;28;2051;-63
2021/12/05 03:08:35;;;;;;;5.07;1.63;;;;;;;-144.99;100.00;57660.31;347501;28;1689;-62
2021/12/05 03:08:51;;;;;;;4.57;1.70;;;;;;;-144.99;100.00;57660.31;347661;28;1049;-61
2021/12/05 03:09:07;;;;;;;4.03;1.55;;;;;;;-144.99;100.00;57660.31;347604;28;1559;-62
2021/12/05 03:09:20;;;;;;;4.55;1.55;;;;;;;-144.99;100.00;57660.31;347776;28;1297;-62
2021/12/05 03:09:33;;;;;;;5.85;1.60;;;;;;;-144.99;100.00;57660.31;347499;28;1713;-62
2021/12/05 03:09:45;;;;;;;6.35;1.55;;;;;;;-144.99;100.00;57660.31;346212;28;1136;-62
2021/12/05 03:09:57;;;;;;;4.57;1.40;;;;;;;-144.99;100.00;57660.31;346264;28;1733;-62
2021/12/05 03:10:14;;;;;;;3.17;1.27;;;;;;;-144.99;100.00;57660.31;347809;28;1065;-62
2021/12/05 03:10:27;;;;;;;3.70;1.38;;;;;;;-144.99;100.00;57660.31;347683;28;1097;-62
2021/12/05 03:10:39;;;;;;;4.20;1.48;;;;;;;-144.99;100.00;57660.31;347199;28;2166;-62
2021/12/05 03:10:53;;;;;;;3.65;1.48;;;;;;;-144.99;100.00;57660.31;347136;28;1021;-62
2021/12/05 03:11:06;;;;;;;4.15;1.30;;;;;;;-144.99;100.00;57660.31;347483;28;1831;-62
2021/12/05 03:11:19;;;;;;;6.35;1.40;;;;;;;-144.99;100.00;57660.31;347917;28;1077;-62
2021/12/05 03:11:31;;;;;;;5.63;1.25;;;;;;;-144.99;100.00;57660.31;347896;28;1350;-62
2021/12/05 03:11:44;;;;;;;6.28;1.20;;;;;;;-144.99;100.00;57660.31;347542;28;1204;-61
2021/12/05 03:11:58;;;;;;;6.53;1.27;;;;;;;-144.99;100.00;57660.31;347933;28;1097;-62
2021/12/05 03:12:16;;;;;;;5.72;1.30;;;;;;;-144.99;100.00;57660.31;347622;28;1221;-62
2021/12/05 03:12:30;;;;;;;6.10;1.40;;;;;;;-144.99;100.00;57660.31;347380;28;1248;-62
2021/12/05 03:12:45;;;;;;;7.53;1.40;;;;;;;-144.99;100.00;57660.31;347516;28;1102;-62
2021/12/05 03:12:57;;;;;;;7.10;1.30;;;;;;;-144.99;100.00;57660.31;347100;28;1721;-62
2021/12/05 03:13:09;;;;;;;7.35;1.30;;;;;;;-144.99;100.00;57660.31;347463;28;1251;-62
2021/12/05 03:13:22;;;;;;;4.68;1.30;;;;;;;-144.99;100.00;57660.31;347547;28;1319;-62
2021/12/05 03:13:36;;;;;;;4.15;1.17;;;;;;;-144.99;100.00;57660.31;347637;28;1069;-62
2021/12/05 03:13:48;;;;;;;3.85;1.33;;;;;;;-144.99;100.00;57660.31;347515;28;1316;-62
2021/12/05 03:14:01;;;;;;;4.88;1.50;;;;;;;-144.99;100.00;57660.31;347371;28;1719;-62
2021/12/05 03:14:13;;;;;;;4.32;1.30;;;;;;;-144.99;100.00;57660.31;347492;28;1010;-62
2021/12/05 03:14:25;;;;;;;2.88;1.20;;;;;;;-144.99;100.00;57660.31;346635;28;1863;-63
2021/12/05 03:14:38;;;;;;;2.30;1.17;;;;;;;-144.99;100.00;57660.31;346312;28;1090;-63
2021/12/05 03:14:59;;;;;;;3.00;1.23;;;;;;;-144.99;100.00;57660.31;346559;28;1102;-62
2021/12/05 03:15:13;;;;;;;4.80;1.40;;;;;;;-144.99;100.00;57660.31;347454;28;1412;-63
2021/12/05 03:15:26;;;;;;;5.20;1.40;;;;;;;-144.99;100.00;57660.31;347805;28;1219;-62
2021/12/05 03:15:38;;;;;;;5.25;1.40;;;;;;;-144.99;100.00;57660.31;347521;28;1097;-62
2021/12/05 03:15:51;;;;;;;5.32;1.58;;;;;;;-144.99;100.00;57660.31;347705;28;1097;-62
2021/12/05 03:16:04;;;;;;;4.88;1.55;;;;;;;-144.99;100.00;57660.31;347757;28;1639;-61
2021/12/05 03:16:19;;;;;;;4.13;1.33;;;;;;;-144.99;100.00;57660.31;347776;28;1104;-62
2021/12/05 03:16:32;;;;;;;5.20;1.30;;;;;;;-144.99;100.00;57660.31;347385;28;1070;-62
2021/12/05 03:16:45;;;;;;;4.57;1.30;;;;;;;-144.99;100.00;57660.31;347240;28;1020;-62
2021/12/05 03:16:58;;;;;;;3.30;1.17;;;;;;;-144.99;100.00;57660.31;347102;28;2013;-63
2021/12/05 03:17:10;;;;;;;3.30;1.10;;;;;;;-144.99;100.00;57660.31;347472;28;1211;-62
2021/12/05 03:17:22;;;;;;;4.20;1.25;;;;;;;-144.99;100.00;57660.31;347436;28;1271;-62
2021/12/05 03:17:34;;;;;;;4.05;1.30;;;;;;;-144.99;100.00;57660.31;347415;28;1010;-62
2021/12/05 03:17:46;;;;;;;5.22;1.30;;;;;;;-144.99;100.00;57660.31;347354;28;1077;-62
2021/12/05 03:17:58;;;;;;;5.03;1.40;;;;;;;-144.99;100.00;57660.31;346884;28;2290;-63
2021/12/05 03:18:11;;;;;;;4.80;1.40;;;;;;;-144.99;100.00;57660.31;347295;28;1893;-62
2021/12/05 03:18:24;;;;;;;3.65;1.30;;;;;;;-144.99;100.00;57660.31;347238;28;1229;-62
2021/12/05 03:18:40;;;;;;;4.20;1.10;;;;;;;-144.99;100.00;57660.31;346217;28;1253;-63
2021/12/05 03:18:53;;;;;;;5.05;1.10;;;;;;;-144.99;100.00;57660.31;346251;28;1114;-62
2021/12/05 03:19:07;;;;;;;5.38;1.10;;;;;;;-144.99;100.00;57660.31;347504;28;1662;-62
2021/12/05 03:19:20;;;;;;;3.70;1.20;;;;;;;-144.99;100.00;57660.31;347708;28;1100;-63
2021/12/05 03:19:32;;;;;;;3.83;1.38;;;;;;;-144.99;100.00;57660.31;347738;28;1113;-62
2021/12/05 03:19:44;;;;;;;3.88;1.33;;;;;;;-144.99;100.00;57660.31;347587;28;1065;-62
2021/12/05 03:19:56;;;;;;;4.40;1.30;;;;;;;-144.99;100.00;57660.31;347851;28;1367;-62
2021/12/05 03:20:10;;;;;;;4.75;1.30;;;;;;;-144.99;100.00;57660.31;348055;28;1077;-62
2021/12/05 03:20:22;;;;;;;4.75;1.35;;;;;;;-144.99;100.00;57660.31;347770;28;1088;-61
2021/12/05 03:20:34;;;;;;;3.47;1.23;;;;;;;-144.99;100.00;57660.31;348059;28;1113;-62
2021/12/05 03:20:46;;;;;;;3.97;1.30;;;;;;;-144.99;100.00;57660.31;347979;28;1292;-62
2021/12/05 03:21:00;;;;;;;3.92;1.20;;;;;;;-144.99;100.00;57660.31;347908;28;1765;-62
2021/12/05 03:21:13;;;;;;;3.90;1.15;;;;;;;-144.99;100.00;57660.31;347800;28;1232;-62
2021/12/05 03:21:26;;;;;;;3.28;1.00;;;;;;;-144.99;100.00;57660.31;347951;28;1243;-62
2021/12/05 03:21:40;;;;;;;3.83;1.00;;;;;;;-144.99;100.00;57660.31;347439;28;1647;-62
2021/12/05 03:21:53;;;;;;;4.72;1.30;;;;;;;-144.99;100.00;57660.31;347457;28;1046;-62
2021/12/05 03:22:06;;;;;;;9.35;2.28;;;;;;;-144.99;100.00;57660.31;347706;28;1297;-62
2021/12/05 03:22:18;;;;;;;13.35;2.50;;;;;;;-144.99;100.00;57660.31;348010;28;1283;-61
2021/12/05 03:22:30;;;;;;;8.05;1.50;;;;;;;-144.99;100.00;57660.31;348178;28;727;-62
2021/12/05 03:22:43;;;;;;;5.35;1.30;;;;;;;-144.99;100.00;57660.31;347616;28;1102;-62
2021/12/05 03:22:55;;;;;;;2.95;1.33;;;;;;;-144.99;100.00;57660.31;347602;28;1273;-62
2021/12/05 03:23:07;;;;;;;6.07;1.55;;;;;;;-144.99;100.00;57660.31;346540;28;1230;-62
2021/12/05 03:23:20;;;;;;;10.43;2.13;;;;;;;-144.99;100.00;57660.31;346188;28;1021;-62
2021/12/05 03:23:32;;;;;;;9.48;2.25;;;;;;;-144.99;100.00;57660.31;346220;28;1443;-62
2021/12/05 03:23:47;;;;;;;8.10;2.03;;;;;;;-144.99;100.00;57660.31;346360;28;1038;-62
2021/12/05 03:23:59;;;;;;;5.45;1.63;;;;;;;-144.99;100.00;57660.31;346727;28;1580;-62
2021/12/05 03:24:13;;;;;;;9.85;2.60;;;;;;;-144.99;100.00;57660.31;347816;28;1086;-63
2021/12/05 03:24:26;;;;;;;12.40;3.10;;;;;;;-144.99;100.00;57660.31;347198;28;1973;-62
2021/12/05 03:24:38;;;;;;;9.43;2.25;;;;;;;-144.99;100.00;57660.31;347696;28;1071;-62
2021/12/05 03:24:50;;;;;;;5.22;1.52;;;;;;;-144.99;100.00;57660.31;347983;28;1022;-62
2021/12/05 03:25:05;;;;;;;4.07;1.50;;;;;;;-144.99;100.00;57660.31;348048;28;1097;-62
2021/12/05 03:25:18;;;;;;;4.65;1.50;;;;;;;-144.99;100.00;57660.31;347601;28;1794;-62
2021/12/05 03:25:30;;;;;;;3.67;1.15;;;;;;;-144.99;100.00;57660.31;347536;28;1580;-62
2021/12/05 03:25:43;;;;;;;3.35;1.05;;;;;;;-144.99;100.00;57660.31;347717;28;1107;-61
2021/12/05 03:25:55;;;;;;;4.53;1.10;;;;;;;-144.99;100.00;57660.31;349201;28;1797;-62
2021/12/05 03:26:11;;;;;;;5.72;1.45;;;;;;;-144.99;100.00;57660.31;346591;28;1161;-62
2021/12/05 03:26:26;;;;;;;8.20;2.22;;;;;;;-144.99;100.00;57660.31;346516;28;1058;-62
2021/12/05 03:26:42;;;;;;;8.80;2.35;;;;;;;-144.99;100.00;57660.31;346669;28;1101;-61
2021/12/05 03:26:55;;;;;;;8.43;2.13;;;;;;;-144.99;100.00;57660.31;346628;28;1032;-62
2021/12/05 03:27:07;;;;;;;7.35;1.67;;;;;;;-144.99;100.00;57660.31;347124;28;1845;-62
2021/12/05 03:27:19;;;;;;;6.55;1.40;;;;;;;-144.99;100.00;57660.31;347691;28;2160;-62
2021/12/05 03:27:32;;;;;;;5.80;1.30;;;;;;;-144.99;100.00;57660.31;347887;28;1196;-63
2021/12/05 03:27:44;;;;;;;6.60;1.42;;;;;;;-144.99;100.00;57660.31;347758;28;1052;-62
2021/12/05 03:27:56;;;;;;;7.38;1.75;;;;;;;-144.99;100.00;57660.31;347932;28;1574;-62
2021/12/05 03:28:09;;;;;;;8.35;1.90;;;;;;;-144.99;100.00;57660.31;347866;28;1213;-61